createdAt,value
2022-09-22T00:01:32.428Z,93.63
2022-09-22T00:04:04.385Z,94.11
2022-09-22T00:06:37.267Z,94.50
2022-09-22T00:09:07.197Z,95.18
2022-09-22T00:11:40.377Z,93.72
2022-09-22T00:14:13.810Z,92.83
2022-09-22T00:16:48.686Z,92.83
2022-09-22T00:19:22.990Z,91.42
2022-09-22T00:21:51.444Z,92.08
2022-09-22T00:24:22.688Z,92.12
2022-09-22T00:26:51.568Z,91.44
2022-09-22T00:29:19.126Z,91.00
2022-09-22T00:31:46.678Z,91.56
2022-09-22T00:34:18.900Z,92.46
2022-09-22T00:36:47.083Z,91.20
2022-09-22T00:39:16.683Z,92.25
2022-09-22T00:41:47.594Z,94.15
2022-09-22T00:44:34.810Z,94.60
2022-09-22T00:47:30.309Z,91.80
2022-09-22T00:50:07.222Z,93.79
2022-09-22T00:52:58.848Z,93.33
2022-09-22T00:55:28.936Z,94.00
2022-09-22T00:57:57.781Z,94.39
2022-09-22T01:00:25.342Z,94.97
2022-09-22T01:02:59.503Z,94.58
2022-09-22T01:05:30.151Z,93.38
2022-09-22T01:07:58.009Z,93.33
2022-09-22T01:10:26.414Z,94.46
2022-09-22T01:13:22.414Z,97.14
2022-09-22T01:16:45.895Z,98.10
2022-09-22T01:19:40.361Z,97.91
2022-09-22T01:22:22.662Z,95.08
2022-09-22T01:25:50.456Z,95.95
2022-09-22T01:29:08.270Z,96.88
2022-09-22T01:32:23.132Z,95.49
2022-09-22T01:35:27.915Z,96.40
2022-09-22T01:38:10.074Z,95.67
2022-09-22T01:40:57.808Z,94.97
2022-09-22T01:43:34.465Z,94.63
2022-09-22T01:46:10.581Z,94.41
2022-09-22T01:48:44.942Z,93.61
2022-09-22T01:51:24.688Z,95.46
2022-09-22T01:54:18.656Z,94.65
2022-09-22T01:56:53.397Z,95.71
2022-09-22T01:59:27.926Z,95.24
2022-09-22T02:02:03.531Z,94.81
2022-09-22T02:04:47.817Z,93.60
2022-09-22T02:07:41.513Z,95.04
2022-09-22T02:10:13.819Z,94.03
2022-09-22T02:12:41.513Z,94.33
2022-09-22T02:15:30.130Z,96.19
2022-09-22T02:18:06.381Z,97.37
2022-09-22T02:20:35.129Z,97.65
2022-09-22T02:23:03.068Z,98.74
2022-09-22T02:25:30.966Z,97.98
2022-09-22T02:27:59.372Z,96.93
2022-09-22T02:30:27.932Z,96.78
2022-09-22T02:32:58.093Z,97.74
2022-09-22T02:35:30.995Z,96.93
2022-09-22T02:38:28.855Z,99.11
2022-09-22T02:41:29.868Z,99.23
2022-09-22T02:44:15.301Z,98.91
2022-09-22T02:46:58.415Z,97.84
2022-09-22T02:49:27.750Z,98.54
2022-09-22T02:51:55.495Z,98.71
2022-09-22T02:54:25.769Z,98.95
2022-09-22T02:56:53.475Z,98.92
2022-09-22T02:59:21.206Z,99.68
2022-09-22T03:01:49.910Z,100.00
2022-09-22T03:04:17.482Z,100.00
2022-09-22T03:06:45.045Z,100.00
2022-09-22T03:09:12.551Z,98.55
2022-09-22T03:11:39.983Z,99.46
2022-09-22T03:14:07.424Z,100.00
2022-09-22T03:16:35.191Z,100.00
2022-09-22T03:19:02.604Z,100.00
2022-09-22T03:21:30.111Z,100.00
2022-09-22T03:23:57.584Z,100.00
2022-09-22T03:26:25.059Z,100.00
2022-09-22T03:28:53.423Z,100.00
2022-09-22T03:31:20.964Z,100.00
2022-09-22T03:33:52.586Z,100.00
2022-09-22T03:36:20.936Z,100.00
2022-09-22T03:38:48.696Z,100.00
2022-09-22T03:41:16.132Z,100.00
2022-09-22T03:43:43.590Z,100.00
2022-09-22T03:46:11.071Z,100.00
2022-09-22T03:48:42.872Z,100.00
2022-09-22T03:51:12.418Z,100.00
2022-09-22T03:53:39.883Z,100.00
2022-09-22T03:56:14.331Z,100.00
2022-09-22T03:58:42.325Z,100.00
2022-09-22T04:01:11.408Z,100.00
2022-09-22T04:03:41.062Z,100.00
2022-09-22T04:06:09.131Z,100.00
2022-09-22T04:08:36.752Z,100.00
2022-09-22T04:11:05.606Z,100.00
2022-09-22T04:13:33.115Z,100.00
2022-09-22T04:16:00.597Z,100.00
2022-09-22T04:18:28.552Z,100.00
2022-09-22T04:20:59.776Z,100.00
2022-09-22T04:23:27.789Z,100.00
2022-09-22T04:25:55.276Z,100.00
2022-09-22T04:28:23.024Z,100.00
2022-09-22T04:30:50.895Z,100.00
2022-09-22T04:33:18.393Z,100.00
2022-09-22T04:35:45.901Z,100.00
2022-09-22T04:38:14.581Z,100.00
2022-09-22T04:40:42.386Z,100.00
2022-09-22T04:43:09.941Z,100.00
2022-09-22T04:45:39.764Z,100.00
2022-09-22T04:48:07.522Z,100.00
2022-09-22T04:50:35.041Z,100.00
2022-09-22T04:53:07.006Z,100.00
2022-09-22T04:55:35.133Z,100.00
2022-09-22T04:58:02.770Z,100.00
2022-09-22T05:00:30.700Z,100.00
2022-09-22T05:02:58.632Z,100.00
2022-09-22T05:05:26.177Z,100.00
2022-09-22T05:07:54.870Z,100.00
2022-09-22T05:10:25.433Z,100.00
2022-09-22T05:12:53.704Z,100.00
2022-09-22T05:15:22.772Z,100.00
2022-09-22T05:17:55.273Z,100.00
2022-09-22T05:20:23.191Z,100.00
2022-09-22T05:22:50.619Z,100.00
2022-09-22T05:25:20.210Z,100.00
2022-09-22T05:27:50.667Z,100.00
2022-09-22T05:30:19.513Z,100.00
2022-09-22T05:32:49.298Z,99.15
2022-09-22T05:35:23.864Z,97.46
2022-09-22T05:37:53.431Z,99.86
2022-09-22T05:40:24.132Z,100.00
2022-09-22T05:42:55.630Z,100.00
2022-09-22T05:45:23.440Z,100.00
2022-09-22T05:47:51.364Z,100.00
2022-09-22T05:50:20.958Z,100.00
2022-09-22T05:52:48.560Z,95.89
2022-09-22T05:55:16.491Z,93.29
2022-09-22T05:57:44.036Z,91.17
2022-09-22T06:00:12.807Z,90.76
2022-09-22T06:02:43.124Z,87.64
2022-09-22T06:05:10.637Z,87.65
2022-09-22T06:07:38.067Z,86.68
2022-09-22T06:10:06.506Z,87.67
2022-09-22T06:12:33.997Z,87.84
2022-09-22T06:15:01.423Z,87.07
2022-09-22T06:17:28.996Z,86.94
2022-09-22T06:19:56.506Z,84.96
2022-09-22T06:22:24.347Z,85.51
2022-09-22T06:24:51.824Z,85.63
2022-09-22T06:27:19.378Z,84.67
2022-09-22T06:29:46.787Z,85.25
2022-09-22T06:32:14.259Z,85.22
2022-09-22T06:34:44.772Z,84.26
2022-09-22T06:37:12.536Z,83.25
2022-09-22T06:39:39.975Z,82.14
2022-09-22T06:42:07.760Z,82.28
2022-09-22T06:44:36.148Z,80.34
2022-09-22T06:47:10.613Z,80.79
2022-09-22T06:49:38.268Z,79.10
2022-09-22T06:52:06.952Z,78.32
2022-09-22T06:54:34.406Z,79.69
2022-09-22T06:57:01.825Z,77.13
2022-09-22T06:59:29.520Z,76.46
2022-09-22T07:01:57.758Z,75.67
2022-09-22T07:04:25.370Z,75.38
2022-09-22T07:06:52.799Z,74.05
2022-09-22T07:09:21.246Z,72.89
2022-09-22T07:11:49.183Z,74.19
2022-09-22T07:14:16.740Z,74.43
2022-09-22T07:16:44.424Z,74.38
2022-09-22T07:19:12.051Z,74.68
2022-09-22T07:21:40.406Z,71.72
2022-09-22T07:24:08.787Z,72.54
2022-09-22T07:26:40.992Z,71.88
2022-09-22T07:29:13.772Z,69.18
2022-09-22T07:31:44.397Z,69.68
2022-09-22T07:34:12.827Z,65.20
2022-09-22T07:36:40.965Z,65.63
2022-09-22T07:39:12.974Z,64.41
2022-09-22T07:41:43.931Z,64.09
2022-09-22T07:44:33.386Z,66.50
2022-09-22T07:47:02.330Z,64.16
2022-09-22T07:49:30.746Z,62.11
2022-09-22T07:51:58.839Z,63.98
2022-09-22T07:54:27.703Z,63.01
2022-09-22T07:56:58.736Z,61.93
2022-09-22T07:59:27.642Z,64.38
2022-09-22T08:01:55.692Z,60.74
2022-09-22T08:04:24.077Z,62.97
2022-09-22T08:06:55.600Z,61.73
2022-09-22T08:09:25.377Z,60.57
2022-09-22T08:11:53.564Z,62.44
2022-09-22T08:14:23.639Z,58.63
2022-09-22T08:16:53.471Z,57.79
2022-09-22T08:19:23.902Z,55.01
2022-09-22T08:21:54.236Z,53.87
2022-09-22T08:24:23.123Z,54.86
2022-09-22T08:26:54.809Z,52.26
2022-09-22T08:29:24.429Z,53.39
2022-09-22T08:31:52.132Z,53.89
2022-09-22T08:34:20.382Z,53.63
2022-09-22T08:36:48.550Z,53.13
2022-09-22T08:39:18.065Z,52.58
2022-09-22T08:41:47.585Z,50.89
2022-09-22T08:44:23.046Z,49.85
2022-09-22T08:46:50.832Z,49.70
2022-09-22T08:50:05.361Z,50.87
2022-09-22T08:52:53.333Z,51.66
2022-09-22T08:55:25.574Z,51.27
2022-09-22T08:58:16.564Z,50.67
2022-09-22T09:00:56.993Z,49.59
2022-09-22T09:04:22.463Z,49.69
2022-09-22T09:06:55.770Z,48.76
2022-09-22T09:09:50.870Z,50.46
2022-09-22T09:13:11.885Z,48.65
2022-09-22T09:16:04.393Z,44.92
2022-09-22T09:18:38.078Z,45.86
2022-09-22T09:21:13.920Z,45.66
2022-09-22T09:26:46.765Z,45.32
2022-09-22T09:29:22.665Z,47.21
2022-09-22T09:31:54.893Z,47.73
2022-09-22T09:34:29.047Z,45.59
2022-09-22T09:37:07.819Z,44.89
2022-09-22T09:39:40.663Z,44.16
2022-09-22T09:42:25.350Z,41.78
2022-09-22T09:44:55.123Z,44.24
2022-09-22T09:47:59.653Z,43.55
2022-09-22T09:50:32.601Z,43.48
2022-09-22T09:53:01.393Z,44.82
2022-09-22T09:55:29.566Z,43.91
2022-09-22T09:58:36.303Z,41.95
2022-09-22T10:01:04.459Z,43.37
2022-09-22T10:03:41.190Z,40.68
2022-09-22T10:06:11.034Z,39.87
2022-09-22T10:08:49.335Z,40.33
2022-09-22T10:11:17.110Z,42.36
2022-09-22T10:13:45.019Z,42.41
2022-09-22T10:16:25.732Z,42.70
2022-09-22T10:19:30.303Z,42.71
2022-09-22T10:22:29.423Z,41.58
2022-09-22T10:25:05.227Z,37.72
2022-09-22T10:27:33.101Z,37.99
2022-09-22T10:30:22.116Z,38.38
2022-09-22T10:33:14.430Z,39.25
2022-09-22T10:36:06.512Z,36.54
2022-09-22T10:38:40.656Z,37.65
2022-09-22T10:41:30.822Z,37.71
2022-09-22T10:44:39.330Z,40.62
2022-09-22T10:47:27.543Z,39.67
2022-09-22T10:50:21.969Z,39.00
2022-09-22T10:52:52.125Z,38.40
2022-09-22T10:56:08.362Z,39.03
2022-09-22T10:59:21.382Z,39.40
2022-09-22T11:02:55.362Z,40.09
2022-09-22T11:05:56.238Z,41.01
2022-09-22T11:08:42.708Z,36.96
2022-09-22T11:11:51.526Z,36.68
2022-09-22T11:15:21.560Z,36.67
2022-09-22T11:18:13.407Z,35.26
2022-09-22T11:24:15.240Z,38.50
2022-09-22T11:26:57.250Z,38.35
2022-09-22T11:29:52.780Z,38.10
2022-09-22T11:33:05.835Z,39.10
2022-09-22T11:36:03.425Z,39.64
2022-09-22T11:38:53.950Z,37.63
2022-09-22T11:41:44.224Z,38.62
2022-09-22T11:44:52.362Z,36.05
2022-09-22T11:47:32.857Z,36.91
2022-09-22T11:50:16.362Z,37.29
2022-09-22T11:53:02.743Z,37.32
2022-09-22T11:56:06.941Z,36.76
2022-09-22T11:58:42.323Z,34.40
2022-09-22T12:01:22.359Z,35.30
2022-09-22T12:04:36.496Z,34.14
2022-09-22T12:07:14.561Z,37.34
2022-09-22T12:09:50.933Z,38.35
2022-09-22T12:12:22.204Z,39.33
2022-09-22T12:15:07.626Z,39.39
2022-09-22T12:17:52.732Z,36.95
2022-09-22T12:20:44.428Z,37.64
2022-09-22T12:23:38.848Z,36.98
2022-09-22T12:26:12.518Z,39.07
2022-09-22T12:28:45.508Z,40.31
2022-09-22T12:31:16.490Z,41.89
2022-09-22T12:33:55.587Z,41.40
2022-09-22T12:36:37.204Z,41.26
2022-09-22T12:39:20.257Z,41.48
2022-09-22T12:42:07.183Z,42.21
2022-09-22T12:44:48.810Z,42.02
2022-09-22T12:47:39.715Z,41.76
2022-09-22T12:50:25.227Z,42.15
2022-09-22T12:52:52.736Z,42.80
2022-09-22T12:55:40.831Z,42.78
2022-09-22T12:58:24.082Z,42.20
2022-09-22T13:00:57.118Z,42.31
2022-09-22T13:03:30.199Z,43.24
2022-09-22T13:06:24.292Z,42.69
2022-09-22T13:08:55.484Z,43.21
2022-09-22T13:12:12.572Z,42.80
2022-09-22T13:15:15.739Z,41.06
2022-09-22T13:17:51.235Z,39.53
2022-09-22T13:20:33.261Z,40.23
2022-09-22T13:23:14.163Z,40.76
2022-09-22T13:25:42.631Z,40.79
2022-09-22T13:28:09.963Z,41.28
2022-09-22T13:30:39.624Z,42.63
2022-09-22T13:33:19.262Z,42.91
2022-09-22T13:36:02.774Z,41.99
2022-09-22T13:38:38.792Z,42.83
2022-09-22T13:41:19.079Z,43.55
2022-09-22T13:43:54.655Z,43.28
2022-09-22T13:46:42.505Z,42.97
2022-09-22T13:49:17.214Z,43.35
2022-09-22T13:51:55.799Z,44.09
2022-09-22T13:54:27.601Z,41.00
2022-09-22T13:56:57.527Z,36.46
2022-09-22T13:59:28.744Z,34.19
2022-09-22T14:01:56.306Z,34.71
2022-09-22T14:04:27.795Z,32.02
2022-09-22T14:07:06.225Z,31.37
2022-09-22T14:09:38.842Z,29.88
2022-09-22T14:12:10.199Z,29.79
2022-09-22T14:14:40.210Z,28.87
2022-09-22T14:17:23.332Z,27.66
2022-09-22T14:19:57.814Z,27.77
2022-09-22T14:22:28.896Z,27.60
2022-09-22T14:24:59.494Z,26.15
2022-09-22T14:27:34.311Z,26.53
2022-09-22T14:30:02.327Z,28.24
2022-09-22T14:32:39.795Z,26.78
2022-09-22T14:35:32.284Z,25.73
2022-09-22T14:38:11.019Z,27.46
2022-09-22T14:41:03.140Z,28.00
2022-09-22T14:43:38.950Z,25.97
2022-09-22T14:46:33.790Z,25.81
2022-09-22T14:49:43.464Z,24.33
2022-09-22T14:52:34.819Z,25.42
2022-09-22T14:55:26.340Z,25.62
2022-09-22T14:57:53.932Z,25.35
2022-09-22T15:00:40.365Z,25.13
2022-09-22T15:03:23.801Z,24.10
2022-09-22T15:05:51.557Z,24.42
2022-09-22T15:08:27.864Z,23.31
2022-09-22T15:11:00.893Z,23.71
2022-09-22T15:13:39.313Z,23.67
2022-09-22T15:16:33.867Z,24.95
2022-09-22T15:19:01.639Z,26.83
2022-09-22T15:21:29.388Z,29.22
2022-09-22T15:24:04.467Z,31.08
2022-09-22T15:26:32.956Z,32.97
2022-09-22T15:29:21.771Z,33.54
2022-09-22T15:31:49.575Z,35.30
2022-09-22T15:34:17.275Z,37.98
2022-09-22T15:36:47.820Z,38.97
2022-09-22T15:39:24.800Z,39.73
2022-09-22T15:41:53.699Z,40.12
2022-09-22T15:44:21.350Z,42.60
2022-09-22T15:46:52.516Z,43.18
2022-09-22T15:49:26.378Z,43.43
2022-09-22T15:51:57.653Z,44.92
2022-09-22T15:54:26.770Z,46.26
2022-09-22T15:56:56.638Z,47.93
2022-09-22T15:59:32.346Z,47.48
2022-09-22T16:02:00.633Z,48.37
2022-09-22T16:04:33.832Z,48.24
2022-09-22T16:07:10.643Z,50.43
2022-09-22T16:09:38.684Z,51.47
2022-09-22T16:12:11.158Z,52.93
2022-09-22T16:14:41.067Z,53.01
2022-09-22T16:17:08.687Z,54.73
2022-09-22T16:19:37.664Z,55.63
2022-09-22T16:22:06.028Z,55.75
2022-09-22T16:24:33.631Z,55.83
2022-09-22T16:27:03.659Z,57.16
2022-09-22T16:29:31.212Z,57.74
2022-09-22T16:31:59.140Z,55.85
2022-09-22T16:34:27.119Z,54.05
2022-09-22T16:36:54.819Z,54.67
2022-09-22T16:39:22.288Z,55.77
2022-09-22T16:41:49.918Z,55.37
2022-09-22T16:44:17.387Z,57.42
2022-09-22T16:46:44.987Z,58.07
2022-09-22T16:49:16.308Z,58.81
2022-09-22T16:51:51.105Z,58.99
2022-09-22T16:54:19.860Z,58.43
2022-09-22T16:56:50.527Z,57.57
2022-09-22T16:59:21.615Z,59.02
2022-09-22T17:01:50.113Z,60.33
2022-09-22T17:04:19.625Z,61.30
2022-09-22T17:06:48.164Z,60.56
2022-09-22T17:09:19.137Z,63.29
2022-09-22T17:11:49.213Z,63.08
2022-09-22T17:14:23.151Z,62.77
2022-09-22T17:16:56.751Z,64.82
2022-09-22T17:19:27.975Z,63.60
2022-09-22T17:21:57.225Z,63.59
2022-09-22T17:24:26.977Z,63.84
2022-09-22T17:26:57.650Z,65.42
2022-09-22T17:29:32.917Z,65.75
2022-09-22T17:32:08.443Z,63.53
2022-09-22T17:34:38.275Z,61.40
2022-09-22T17:37:05.916Z,60.18
2022-09-22T17:39:35.324Z,57.65
2022-09-22T17:42:02.864Z,57.39
2022-09-22T17:44:37.787Z,57.29
2022-09-22T17:47:26.384Z,57.18
2022-09-22T17:50:13.876Z,58.56
2022-09-22T17:53:01.567Z,59.12
2022-09-22T17:55:30.362Z,59.31
2022-09-22T17:58:01.939Z,59.32
2022-09-22T18:00:33.621Z,59.52
2022-09-22T18:03:06.196Z,60.76
2022-09-22T18:05:40.786Z,61.20
2022-09-22T18:08:10.925Z,62.24
2022-09-22T18:10:38.944Z,62.04
2022-09-22T18:13:08.010Z,61.65
2022-09-22T18:15:36.942Z,63.43
2022-09-22T18:18:06.176Z,62.16
2022-09-22T18:20:39.730Z,62.33
2022-09-22T18:23:07.351Z,62.94
2022-09-22T18:25:35.410Z,64.36
2022-09-22T18:28:04.088Z,63.54
2022-09-22T18:30:35.493Z,63.75
2022-09-22T18:33:05.526Z,64.80
2022-09-22T18:35:34.099Z,65.19
2022-09-22T18:38:03.483Z,65.15
2022-09-22T18:40:33.660Z,65.99
2022-09-22T18:43:02.844Z,65.79
2022-09-22T18:45:37.579Z,66.69
2022-09-22T18:48:07.403Z,67.40
2022-09-22T18:50:41.477Z,68.33
2022-09-22T18:53:11.114Z,69.70
2022-09-22T18:55:39.088Z,70.25
2022-09-22T18:58:26.704Z,69.47
2022-09-22T19:01:00.732Z,69.74
2022-09-22T19:03:33.684Z,70.72
2022-09-22T19:06:05.196Z,71.56
2022-09-22T19:08:34.154Z,71.88
2022-09-22T19:11:03.279Z,71.56
2022-09-22T19:13:32.603Z,70.91
2022-09-22T19:16:22.773Z,69.67
2022-09-22T19:18:54.753Z,70.52
2022-09-22T19:21:25.103Z,69.13
2022-09-22T19:23:52.759Z,69.40
2022-09-22T19:26:23.484Z,68.95
2022-09-22T19:28:51.488Z,71.11
2022-09-22T19:31:19.180Z,72.74
2022-09-22T19:33:49.034Z,71.90
2022-09-22T19:36:16.722Z,74.50
2022-09-22T19:38:44.766Z,73.37
2022-09-22T19:41:13.940Z,71.42
2022-09-22T19:43:43.184Z,72.72
2022-09-22T19:46:11.300Z,72.79
2022-09-22T19:48:39.764Z,74.61
2022-09-22T19:51:11.013Z,74.14
2022-09-22T19:53:40.071Z,74.31
2022-09-22T19:56:09.244Z,74.64
2022-09-22T19:58:36.827Z,75.25
2022-09-22T20:01:09.347Z,76.70
2022-09-22T20:03:38.805Z,76.92
2022-09-22T20:06:06.767Z,77.27
2022-09-22T20:08:36.044Z,77.26
2022-09-22T20:11:25.500Z,76.39
2022-09-22T20:14:17.819Z,76.00
2022-09-22T20:16:46.776Z,77.19
2022-09-22T20:19:14.805Z,77.50
2022-09-22T20:21:45.987Z,77.80
2022-09-22T20:24:17.590Z,78.67
2022-09-22T20:26:47.632Z,78.81
2022-09-22T20:29:17.070Z,79.38
2022-09-22T20:31:44.995Z,77.86
2022-09-22T20:34:15.853Z,78.17
2022-09-22T20:36:43.561Z,79.75
2022-09-22T20:39:15.297Z,81.74
2022-09-22T20:41:44.271Z,81.35
2022-09-22T20:44:16.328Z,81.90
2022-09-22T20:46:44.010Z,82.58
2022-09-22T20:49:16.674Z,82.97
2022-09-22T20:51:47.489Z,82.12
2022-09-22T20:54:15.900Z,82.65
2022-09-22T20:56:44.263Z,82.06
2022-09-22T20:59:11.732Z,82.42
2022-09-22T21:01:39.228Z,83.36
2022-09-22T21:04:07.011Z,82.33
2022-09-22T21:06:34.660Z,82.83
2022-09-22T21:09:20.505Z,82.15
2022-09-22T21:11:48.000Z,83.99
2022-09-22T21:14:15.905Z,82.13
2022-09-22T21:16:43.566Z,82.09
2022-09-22T21:19:12.716Z,80.04
2022-09-22T21:21:40.508Z,80.68
2022-09-22T21:24:11.164Z,79.03
2022-09-22T21:26:38.822Z,80.79
2022-09-22T21:29:06.349Z,83.51
2022-09-22T21:31:34.859Z,84.11
2022-09-22T21:34:02.524Z,85.49
2022-09-22T21:36:29.999Z,86.55
2022-09-22T21:38:59.961Z,86.74
2022-09-22T21:41:31.214Z,87.28
2022-09-22T21:44:00.028Z,89.49
2022-09-22T21:46:30.414Z,89.33
2022-09-22T21:49:03.087Z,89.72
2022-09-22T21:51:34.754Z,90.06
2022-09-22T21:54:04.729Z,90.86
2022-09-22T21:56:33.924Z,91.35
2022-09-22T21:59:03.417Z,91.75
2022-09-22T22:01:37.792Z,93.13
2022-09-22T22:04:08.362Z,92.87
2022-09-22T22:06:43.151Z,94.27
2022-09-22T22:09:22.452Z,92.39
2022-09-22T22:11:59.793Z,92.78
2022-09-22T22:14:32.949Z,92.93
2022-09-22T22:17:02.300Z,93.06
2022-09-22T22:19:30.028Z,93.22
2022-09-22T22:21:58.540Z,92.51
2022-09-22T22:24:31.787Z,90.69
2022-09-22T22:27:06.353Z,93.20
2022-09-22T22:29:35.140Z,93.71
2022-09-22T22:32:08.140Z,94.65
2022-09-22T22:34:35.674Z,93.27
2022-09-22T22:37:04.751Z,95.02
2022-09-22T22:39:32.595Z,95.12
2022-09-22T22:42:00.105Z,89.84
2022-09-22T22:44:27.806Z,89.88
2022-09-22T22:46:55.335Z,92.13
2022-09-22T22:49:22.755Z,92.97
2022-09-22T22:51:52.324Z,94.44
2022-09-22T22:54:19.944Z,96.02
2022-09-22T22:56:50.939Z,96.07
2022-09-22T22:59:19.315Z,97.12
2022-09-22T23:01:46.905Z,97.07
2022-09-22T23:04:16.669Z,96.66
2022-09-22T23:06:44.578Z,95.37
2022-09-22T23:09:15.864Z,94.90
2022-09-22T23:11:46.332Z,93.70
2022-09-22T23:14:15.991Z,91.46
2022-09-22T23:16:49.599Z,92.16
2022-09-22T23:19:18.898Z,90.27
2022-09-22T23:21:47.513Z,90.01
2022-09-22T23:24:18.892Z,90.63
2022-09-22T23:26:47.566Z,91.66
2022-09-22T23:29:15.197Z,91.38
2022-09-22T23:31:43.248Z,91.39
2022-09-22T23:34:10.744Z,92.31
2022-09-22T23:36:39.615Z,92.66
2022-09-22T23:39:07.248Z,91.33
2022-09-22T23:41:36.862Z,89.72
2022-09-22T23:44:08.502Z,89.18
2022-09-22T23:46:38.327Z,89.04
2022-09-22T23:49:06.859Z,88.76
2022-09-22T23:51:34.307Z,88.37
2022-09-22T23:54:01.931Z,88.57
2022-09-22T23:56:29.604Z,88.12
2022-09-22T23:58:57.326Z,89.16
